Indianapolis/Eagle Creek Airpark, Indiana
Current Conditions -  °F | °C
As of 11:53 AM on Thursday 30 Oct 2014 (Local Time) from KEYE Reporting Station
Clear Clear  
Wind Chill: 47°   Ceiling: Unl
Heat Index: 49°   Visibility: 10mi
Dew Point: 32°   Wind: 6mph
Humidity: 52%   Direction: 180°S
Pressure: 30.15"   Gusts: NA
Location:  39.83°N, 86.3°W
Report Text: KEYE 301553Z AUTO 18005KT 10SM CLR 09/00 A3015 RMK AO2 SLP213 T00940000
Loading
Personal Weather Stations






























Interactive Weather Map
Tropical Storm Tracking
New forecast layout! Learn more

10-Day Weather Forecast

Advertisements
Track Severe Weather on mobile